Time;durP1;ratioP1;P1;durP2;ratioP2;P2;SDS_P1;SDS_P2;PMS_P1;PMS_P2;Temp;Humidity;BMP_temperature;BMP_pressure;BME280_temperature;BME280_humidity;BME280_pressure;Samples;Min_cycle;Max_cycle;Signal;HPM_P1;HPM_P2
2022/01/06 00:01:24;;;;;;;12.90;2.30;;;3.80;99.90;;;;;;5063839;27;20107;-84
2022/01/06 00:03:52;;;;;;;14.97;2.17;;;3.70;99.90;;;;;;5087351;27;20059;-85
2022/01/06 00:06:18;;;;;;;11.63;2.13;;;3.60;99.90;;;;;;5118846;27;20727;-84
2022/01/06 00:08:44;;;;;;;17.17;2.47;;;3.50;99.90;;;;;;5079759;28;20039;-84
2022/01/06 00:11:11;;;;;;;11.13;2.50;;;3.50;99.90;;;;;;5110579;28;20046;-84
2022/01/06 00:16:41;;;;;;;11.60;2.40;;;3.50;99.90;;;;;;5089922;27;20108;-84
2022/01/06 00:24:25;;;;;;;14.90;2.90;;;3.40;99.90;;;;;;5111699;27;21865;-83
2022/01/06 00:26:51;;;;;;;14.67;3.03;;;3.30;99.90;;;;;;5097713;27;20721;-83
2022/01/06 00:29:17;;;;;;;10.47;2.10;;;3.30;99.90;;;;;;5099887;27;20035;-84
2022/01/06 00:31:43;;;;;;;16.27;3.00;;;3.30;99.90;;;;;;5110390;27;20039;-84
2022/01/06 00:34:12;;;;;;;12.43;2.27;;;3.30;99.90;;;;;;5096804;27;20076;-84
2022/01/06 00:36:42;;;;;;;11.37;2.40;;;3.30;99.90;;;;;;5106436;27;20070;-85
2022/01/06 00:39:09;;;;;;;9.90;2.20;;;3.30;99.90;;;;;;5113716;27;20877;-84
2022/01/06 00:41:36;;;;;;;12.00;2.40;;;3.30;99.90;;;;;;5081287;27;20055;-84
2022/01/06 00:44:04;;;;;;;13.30;2.60;;;3.40;99.90;;;;;;5111789;27;20054;-84
2022/01/06 00:46:30;;;;;;;18.47;2.90;;;3.30;99.90;;;;;;5107411;27;20077;-83
2022/01/06 00:48:56;;;;;;;17.33;2.67;;;3.30;99.90;;;;;;5111385;27;22881;-84
2022/01/06 00:51:22;;;;;;;18.43;2.50;;;3.40;99.90;;;;;;5110980;28;20099;-83
2022/01/06 00:53:49;;;;;;;11.80;2.00;;;3.40;99.90;;;;;;5113583;27;20049;-84
2022/01/06 00:56:14;;;;;;;16.53;2.97;;;3.40;99.90;;;;;;5108402;27;20136;-84
2022/01/06 00:58:40;;;;;;;15.43;2.83;;;3.50;99.90;;;;;;5112822;27;20043;-84
2022/01/06 01:01:06;;;;;;;13.57;2.50;;;3.50;99.90;;;;;;5105815;28;20052;-84
2022/01/06 01:03:32;;;;;;;14.07;2.60;;;3.50;99.90;;;;;;5090575;27;20047;-84
2022/01/06 01:05:58;;;;;;;9.93;2.30;;;3.50;99.90;;;;;;5107535;27;20082;-83
2022/01/06 01:08:25;;;;;;;8.70;2.10;;;3.40;99.90;;;;;;5095768;27;20039;-84
2022/01/06 01:10:53;;;;;;;13.27;2.70;;;3.40;99.90;;;;;;5081848;27;20089;-84
2022/01/06 01:13:27;;;;;;;16.03;2.47;;;3.30;99.90;;;;;;5091597;28;20055;-84
2022/01/06 01:15:55;;;;;;;10.07;2.33;;;3.30;99.90;;;;;;5088711;27;20027;-84
2022/01/06 01:18:22;;;;;;;13.17;2.53;;;3.30;99.90;;;;;;5106315;27;20044;-85
2022/01/06 01:20:49;;;;;;;13.33;2.80;;;3.20;99.90;;;;;;5070216;27;20408;-83
2022/01/06 01:23:16;;;;;;;14.30;2.17;;;3.10;99.90;;;;;;5087852;27;20043;-84
2022/01/06 01:25:42;;;;;;;15.20;2.40;;;3.10;99.90;;;;;;5093661;27;20035;-85
2022/01/06 01:28:10;;;;;;;11.80;2.30;;;3.10;99.90;;;;;;5112565;27;20794;-84
2022/01/06 01:30:52;;;;;;;11.67;2.13;;;3.10;99.90;;;;;;5090676;27;20047;-84
2022/01/06 01:33:17;;;;;;;14.60;2.33;;;3.10;99.90;;;;;;5103594;27;20051;-83
2022/01/06 01:35:43;;;;;;;12.67;2.40;;;3.00;99.90;;;;;;5095863;27;20085;-83
2022/01/06 01:38:09;;;;;;;15.53;2.10;;;3.00;99.90;;;;;;5099910;27;20038;-84
2022/01/06 01:40:35;;;;;;;6.33;1.70;;;3.00;99.90;;;;;;5100418;27;20130;-83
2022/01/06 01:43:01;;;;;;;9.40;2.17;;;2.90;99.90;;;;;;5091458;27;20050;-84
2022/01/06 01:45:30;;;;;;;8.43;1.93;;;2.90;99.90;;;;;;5096651;27;20089;-84
2022/01/06 01:47:59;;;;;;;6.40;2.13;;;2.90;99.90;;;;;;5092556;27;20108;-85
2022/01/06 01:50:25;;;;;;;7.87;1.90;;;2.80;99.90;;;;;;5106290;27;20039;-84
2022/01/06 01:52:57;;;;;;;12.57;2.30;;;2.80;99.90;;;;;;5098486;27;20058;-83
2022/01/06 01:55:32;;;;;;;8.75;2.13;;;2.80;99.90;;;;;;5117103;27;20091;-84
2022/01/06 01:57:58;;;;;;;8.83;1.77;;;2.70;99.90;;;;;;5112492;28;20112;-83
2022/01/06 02:00:27;;;;;;;9.50;1.97;;;2.80;99.90;;;;;;5105102;27;20053;-83
2022/01/06 02:02:53;;;;;;;8.63;2.00;;;2.70;99.90;;;;;;5096810;27;20051;-84
2022/01/06 02:05:25;;;;;;;10.17;1.80;;;2.70;99.90;;;;;;5078042;28;20091;-84
2022/01/06 02:07:52;;;;;;;9.27;2.00;;;2.70;99.90;;;;;;5116447;28;20081;-84
2022/01/06 02:10:20;;;;;;;9.40;1.60;;;2.60;99.90;;;;;;5108696;27;20516;-84
2022/01/06 02:12:48;;;;;;;12.77;2.10;;;2.60;99.90;;;;;;5103637;28;20047;-84
2022/01/06 02:15:14;;;;;;;11.13;2.20;;;2.60;99.90;;;;;;5113913;28;20129;-85
2022/01/06 02:17:41;;;;;;;13.60;2.10;;;2.60;99.90;;;;;;5096322;28;20047;-84
2022/01/06 02:20:10;;;;;;;15.70;2.13;;;2.60;99.90;;;;;;5099828;28;20039;-84
2022/01/06 02:22:36;;;;;;;11.43;1.90;;;2.60;99.90;;;;;;5099787;28;20275;-84
2022/01/06 02:25:19;;;;;;;11.03;2.10;;;2.60;99.90;;;;;;5117176;28;20464;-83
2022/01/06 02:27:47;;;;;;;9.73;1.50;;;2.50;99.90;;;;;;5095728;28;20045;-85
2022/01/06 02:30:14;;;;;;;8.90;2.30;;;2.50;99.90;;;;;;5098103;28;20061;-83
2022/01/06 02:32:40;;;;;;;12.30;2.20;;;2.40;99.90;;;;;;5114514;28;20047;-83
2022/01/06 02:35:27;;;;;;;11.23;2.00;;;2.30;99.90;;;;;;5090958;28;20043;-84
2022/01/06 02:37:53;;;;;;;6.10;1.93;;;2.30;99.90;;;;;;5098367;28;20051;-84
2022/01/06 02:40:21;;;;;;;13.60;2.40;;;2.30;99.90;;;;;;5107266;28;20061;-85
2022/01/06 02:42:50;;;;;;;13.00;2.37;;;2.20;99.90;;;;;;5114066;28;20077;-84
2022/01/06 02:45:17;;;;;;;11.23;2.23;;;2.20;99.90;;;;;;5115365;28;20067;-86
2022/01/06 02:47:45;;;;;;;13.37;1.83;;;2.30;99.90;;;;;;5111325;28;20051;-85
2022/01/06 02:50:12;;;;;;;10.57;2.10;;;2.30;99.90;;;;;;5100173;28;20050;-85
2022/01/06 02:52:38;;;;;;;13.00;2.17;;;2.30;99.90;;;;;;5074388;28;20050;-85
2022/01/06 02:55:08;;;;;;;8.93;2.10;;;2.30;99.90;;;;;;5112761;28;20058;-85
2022/01/06 02:57:34;;;;;;;11.10;2.00;;;2.40;99.90;;;;;;5114739;28;20065;-85
2022/01/06 03:00:00;;;;;;;12.90;2.27;;;2.40;99.90;;;;;;5115152;28;20040;-85
2022/01/06 03:02:26;;;;;;;10.47;2.53;;;2.40;99.90;;;;;;5074652;28;20039;-84
2022/01/06 03:04:52;;;;;;;11.87;2.40;;;2.50;99.90;;;;;;5097375;28;20048;-85
2022/01/06 03:07:18;;;;;;;11.67;2.23;;;2.60;99.90;;;;;;5133820;28;20055;-85
2022/01/06 03:09:51;;;;;;;11.53;2.43;;;2.60;99.90;;;;;;5107388;28;20047;-84
2022/01/06 03:12:25;;;;;;;12.23;2.20;;;2.60;99.90;;;;;;5073545;27;20040;-85
2022/01/06 03:14:51;;;;;;;10.83;2.20;;;2.60;99.90;;;;;;5095267;27;20039;-85
2022/01/06 03:17:17;;;;;;;11.20;1.97;;;2.70;99.90;;;;;;5092179;27;20067;-85
2022/01/06 03:19:43;;;;;;;13.40;2.47;;;2.70;99.90;;;;;;5109047;27;20661;-85
2022/01/06 03:22:09;;;;;;;13.83;2.73;;;2.80;99.90;;;;;;5079041;28;20052;-84
2022/01/06 03:24:35;;;;;;;12.60;2.07;;;2.80;99.90;;;;;;5107287;27;20043;-85
2022/01/06 03:27:00;;;;;;;14.57;2.40;;;2.90;99.90;;;;;;5103310;27;20046;-84
2022/01/06 03:29:26;;;;;;;12.83;2.47;;;2.80;99.90;;;;;;5068541;27;20046;-84
2022/01/06 03:31:52;;;;;;;11.90;2.17;;;2.90;99.90;;;;;;5092052;27;20039;-85
2022/01/06 03:34:18;;;;;;;13.73;2.60;;;2.90;99.90;;;;;;5090670;28;20079;-84
2022/01/06 03:36:43;;;;;;;13.47;2.47;;;2.90;99.90;;;;;;5066466;27;20700;-84
2022/01/06 03:39:09;;;;;;;16.03;2.67;;;2.90;99.90;;;;;;5116434;28;20043;-84
2022/01/06 03:41:35;;;;;;;13.53;2.93;;;2.90;99.90;;;;;;5111507;27;20082;-86
2022/01/06 03:44:01;;;;;;;11.63;2.50;;;2.90;99.90;;;;;;5117042;27;20054;-85
2022/01/06 03:46:27;;;;;;;13.03;2.17;;;2.90;99.90;;;;;;5100793;27;20043;-86
2022/01/06 03:48:53;;;;;;;12.53;2.60;;;2.80;99.90;;;;;;5092569;27;20044;-85
2022/01/06 03:51:20;;;;;;;12.63;2.30;;;2.90;99.90;;;;;;5078641;27;20054;-85
2022/01/06 03:53:47;;;;;;;15.60;2.80;;;2.90;99.90;;;;;;5107629;28;20051;-85
2022/01/06 03:56:13;;;;;;;14.33;2.50;;;2.80;99.90;;;;;;5089449;27;20517;-85
2022/01/06 03:58:40;;;;;;;11.30;2.83;;;2.70;99.90;;;;;;5113738;27;20039;-84
2022/01/06 04:01:09;;;;;;;10.07;2.47;;;2.60;99.90;;;;;;5084450;27;20058;-85
2022/01/06 04:03:34;;;;;;;17.53;2.50;;;2.60;99.90;;;;;;5089126;27;20823;-86
2022/01/06 04:06:00;;;;;;;15.07;2.70;;;2.50;99.90;;;;;;5102581;27;20046;-85
2022/01/06 04:08:26;;;;;;;13.53;2.57;;;2.50;99.90;;;;;;5118901;27;20050;-85
2022/01/06 04:10:52;;;;;;;9.97;2.53;;;2.40;99.90;;;;;;5082371;27;20035;-85
2022/01/06 04:13:17;;;;;;;12.70;2.10;;;2.40;99.90;;;;;;5090438;28;20147;-85
2022/01/06 04:15:45;;;;;;;15.63;2.40;;;2.30;99.90;;;;;;5102669;27;20047;-85
2022/01/06 04:18:11;;;;;;;11.73;1.93;;;2.20;99.90;;;;;;5099127;27;20051;-85
2022/01/06 04:20:36;;;;;;;16.33;2.80;;;2.10;99.90;;;;;;5097821;27;20197;-85
2022/01/06 04:23:02;;;;;;;9.07;1.90;;;2.00;99.90;;;;;;5091570;27;20047;-85
2022/01/06 04:25:28;;;;;;;8.97;1.83;;;1.90;99.90;;;;;;5117874;27;20119;-84
2022/01/06 04:27:53;;;;;;;12.87;1.80;;;1.80;99.90;;;;;;5111246;28;20112;-85
2022/01/06 04:30:19;;;;;;;7.50;2.03;;;1.70;99.90;;;;;;5095744;27;20031;-85
2022/01/06 04:32:45;;;;;;;14.50;2.30;;;1.70;99.90;;;;;;5085438;27;20081;-84
2022/01/06 04:35:11;;;;;;;6.73;1.70;;;1.60;99.90;;;;;;5082267;27;20058;-84
2022/01/06 04:37:37;;;;;;;12.97;1.93;;;1.60;99.90;;;;;;5086413;27;20059;-84
2022/01/06 04:40:05;;;;;;;7.73;2.17;;;1.50;99.90;;;;;;5117861;27;20051;-85
2022/01/06 04:42:30;;;;;;;10.97;2.07;;;1.50;99.90;;;;;;5100460;27;20084;-84
2022/01/06 04:44:56;;;;;;;10.30;2.20;;;1.50;99.90;;;;;;5100415;27;20059;-85
2022/01/06 04:47:22;;;;;;;13.53;2.30;;;1.50;99.90;;;;;;5108153;27;20504;-85
2022/01/06 04:49:47;;;;;;;10.57;2.83;;;1.40;99.90;;;;;;5101809;27;20047;-85
2022/01/06 04:52:13;;;;;;;16.07;2.77;;;1.50;99.90;;;;;;5100119;27;20040;-83
2022/01/06 04:54:39;;;;;;;16.17;2.47;;;1.40;99.90;;;;;;5094905;27;20429;-86
2022/01/06 04:57:05;;;;;;;5.83;1.80;;;1.40;99.90;;;;;;5095363;28;20071;-84
2022/01/06 04:59:30;;;;;;;10.57;1.93;;;1.40;99.90;;;;;;5090532;27;20050;-84
2022/01/06 05:01:56;;;;;;;11.37;2.20;;;1.40;99.90;;;;;;5064649;28;20043;-84
2022/01/06 05:04:22;;;;;;;6.80;1.60;;;1.30;99.90;;;;;;5096704;27;20053;-84
2022/01/06 05:06:50;;;;;;;13.30;2.37;;;1.30;99.90;;;;;;5084433;28;20673;-85
2022/01/06 05:09:16;;;;;;;10.93;2.03;;;1.20;99.90;;;;;;5109519;27;20043;-85
2022/01/06 05:11:42;;;;;;;9.33;2.10;;;1.20;99.90;;;;;;5109158;27;20054;-85
2022/01/06 05:14:08;;;;;;;7.07;1.83;;;1.20;99.90;;;;;;5090938;27;20111;-86
2022/01/06 05:16:34;;;;;;;12.03;1.97;;;1.20;99.90;;;;;;5115746;27;20039;-85
2022/01/06 05:18:59;;;;;;;13.77;2.43;;;1.20;99.90;;;;;;5093921;27;20075;-84
2022/01/06 05:21:29;;;;;;;16.83;2.13;;;1.20;99.90;;;;;;5093433;27;20897;-85
2022/01/06 05:23:55;;;;;;;11.67;2.23;;;1.20;99.90;;;;;;5117666;27;20525;-85
2022/01/06 05:26:22;;;;;;;9.90;2.03;;;1.10;99.90;;;;;;5117830;27;20102;-85
2022/01/06 05:28:47;;;;;;;11.50;2.73;;;1.10;99.90;;;;;;5079124;28;20061;-84
2022/01/06 05:31:13;;;;;;;12.37;2.47;;;1.10;99.90;;;;;;5073900;27;20043;-84
2022/01/06 05:33:39;;;;;;;12.17;2.30;;;1.10;99.90;;;;;;5096781;28;20441;-85
2022/01/06 05:36:05;;;;;;;11.50;2.70;;;1.00;99.90;;;;;;5091619;28;20088;-85
2022/01/06 05:38:31;;;;;;;20.33;3.07;;;1.10;99.90;;;;;;5093860;28;20139;-84
2022/01/06 05:40:57;;;;;;;11.63;1.90;;;1.10;99.90;;;;;;5070479;28;20036;-85
2022/01/06 05:43:24;;;;;;;15.00;2.17;;;1.10;99.90;;;;;;5068754;28;20047;-85
2022/01/06 05:45:55;;;;;;;8.10;2.17;;;1.10;99.90;;;;;;5107210;28;20111;-85
2022/01/06 05:48:22;;;;;;;14.38;2.80;;;1.20;99.90;;;;;;5110513;28;20047;-85
2022/01/06 05:50:48;;;;;;;10.50;2.13;;;1.10;99.90;;;;;;5107102;28;20036;-84
2022/01/06 05:53:18;;;;;;;9.67;2.40;;;1.20;99.90;;;;;;5109011;28;20309;-85
2022/01/06 05:55:44;;;;;;;11.93;2.27;;;1.20;99.90;;;;;;5089157;28;20032;-85
2022/01/06 05:58:09;;;;;;;12.00;2.53;;;1.20;99.90;;;;;;5095339;28;20119;-83
2022/01/06 06:00:35;;;;;;;13.07;2.83;;;1.20;99.90;;;;;;5077656;28;20115;-82
2022/01/06 06:03:01;;;;;;;10.97;2.17;;;1.10;99.90;;;;;;5091279;28;20499;-85
2022/01/06 06:05:27;;;;;;;16.13;2.43;;;1.20;99.90;;;;;;5091204;28;20070;-84
2022/01/06 06:07:52;;;;;;;9.53;2.33;;;1.10;99.90;;;;;;5084734;28;20080;-84
2022/01/06 06:10:18;;;;;;;10.43;2.17;;;1.20;99.90;;;;;;5071943;28;20059;-85
2022/01/06 06:12:44;;;;;;;13.83;2.40;;;1.20;99.90;;;;;;5111017;28;20784;-85
2022/01/06 06:15:10;;;;;;;11.20;2.80;;;1.10;99.90;;;;;;5095845;28;20159;-86
2022/01/06 06:17:36;;;;;;;16.80;2.60;;;1.10;99.90;;;;;;5106780;28;20052;-85
2022/01/06 06:20:02;;;;;;;11.07;3.00;;;1.20;99.90;;;;;;5080290;28;20350;-84
2022/01/06 06:22:28;;;;;;;12.53;2.60;;;1.10;99.90;;;;;;5111843;28;20067;-84
2022/01/06 06:24:54;;;;;;;15.47;2.50;;;1.10;99.90;;;;;;5104220;28;20048;-84
2022/01/06 06:27:19;;;;;;;7.53;2.30;;;1.10;99.90;;;;;;5074170;28;20055;-84
2022/01/06 06:29:45;;;;;;;12.33;2.30;;;1.20;99.90;;;;;;5109028;28;20051;-85
2022/01/06 06:32:11;;;;;;;17.77;2.63;;;1.10;99.90;;;;;;5083812;28;20074;-85
2022/01/06 06:34:36;;;;;;;8.70;2.00;;;1.10;99.90;;;;;;5107400;28;20055;-84
2022/01/06 06:37:03;;;;;;;13.13;2.33;;;1.10;99.90;;;;;;5112646;28;20067;-84
2022/01/06 06:39:28;;;;;;;13.13;2.90;;;1.10;99.90;;;;;;5072883;28;20036;-85
2022/01/06 06:41:54;;;;;;;20.03;2.90;;;1.10;99.90;;;;;;5106590;28;20048;-85
2022/01/06 06:44:20;;;;;;;9.90;2.10;;;1.10;99.90;;;;;;5073302;28;20047;-85
2022/01/06 06:46:45;;;;;;;11.87;2.40;;;1.00;99.90;;;;;;5075592;27;20494;-85
2022/01/06 06:49:11;;;;;;;14.27;2.30;;;1.00;99.90;;;;;;5100526;28;20067;-85
2022/01/06 06:51:37;;;;;;;14.87;3.93;;;1.00;99.90;;;;;;5096816;27;20047;-85
2022/01/06 06:54:03;;;;;;;11.53;3.20;;;1.00;99.90;;;;;;5093976;27;20044;-85
2022/01/06 06:56:29;;;;;;;21.67;3.27;;;1.00;99.90;;;;;;5099972;27;20043;-84
2022/01/06 06:58:54;;;;;;;15.00;2.83;;;1.00;99.90;;;;;;5119946;27;20054;-84
2022/01/06 07:01:20;;;;;;;14.53;2.80;;;1.00;99.90;;;;;;5113049;27;20079;-84
2022/01/06 07:03:46;;;;;;;13.10;2.53;;;1.00;99.90;;;;;;5120289;27;20049;-84
2022/01/06 07:06:11;;;;;;;14.13;3.27;;;1.00;99.90;;;;;;5096298;27;20407;-84
2022/01/06 07:08:37;;;;;;;13.93;3.27;;;1.00;99.90;;;;;;5117459;28;20047;-84
2022/01/06 07:11:03;;;;;;;8.50;2.47;;;1.00;99.90;;;;;;5083436;28;20043;-85
2022/01/06 07:13:28;;;;;;;18.40;2.40;;;1.10;99.90;;;;;;5069010;27;20046;-86
2022/01/06 07:15:54;;;;;;;13.17;2.47;;;1.00;99.90;;;;;;5082165;27;20597;-83
2022/01/06 07:18:20;;;;;;;13.20;2.43;;;1.00;99.90;;;;;;5082150;27;20154;-83
2022/01/06 07:20:46;;;;;;;16.13;2.77;;;1.00;99.90;;;;;;5081022;27;20039;-84
2022/01/06 07:23:12;;;;;;;17.77;2.47;;;1.00;99.90;;;;;;5095865;27;20315;-82
2022/01/06 07:25:37;;;;;;;11.70;2.43;;;1.10;99.90;;;;;;5117111;28;20070;-83
2022/01/06 07:28:05;;;;;;;13.40;2.47;;;1.10;99.90;;;;;;5111716;27;20043;-85
2022/01/06 07:30:33;;;;;;;15.80;3.03;;;1.10;99.90;;;;;;5063383;27;20091;-92
2022/01/06 07:33:00;;;;;;;16.73;3.03;;;1.20;99.90;;;;;;5073046;27;20305;-88
2022/01/06 07:35:26;;;;;;;16.63;2.73;;;1.20;99.90;;;;;;5099186;27;20340;-92
2022/01/06 07:37:52;;;;;;;22.00;3.07;;;1.30;99.90;;;;;;5086280;27;20366;-84
2022/01/06 07:40:20;;;;;;;11.27;2.43;;;1.40;99.90;;;;;;5098510;27;20046;-83
2022/01/06 07:42:47;;;;;;;11.07;2.73;;;1.50;99.90;;;;;;5099192;27;20047;-84
2022/01/06 07:45:13;;;;;;;15.10;2.97;;;1.50;99.90;;;;;;5087735;27;20087;-80
2022/01/06 07:47:43;;;;;;;14.53;3.47;;;1.40;99.90;;;;;;5097468;27;20114;-81
2022/01/06 07:50:09;;;;;;;15.67;2.40;;;1.50;99.90;;;;;;5107344;28;20396;-87
2022/01/06 07:52:35;;;;;;;17.77;2.83;;;1.40;99.90;;;;;;5096508;27;20395;-86
2022/01/06 07:55:01;;;;;;;19.23;3.20;;;1.40;99.90;;;;;;5115077;27;20047;-87
2022/01/06 07:57:26;;;;;;;16.20;2.53;;;1.40;99.90;;;;;;5067254;27;20067;-88
2022/01/06 07:59:52;;;;;;;11.13;2.47;;;1.40;99.90;;;;;;5077275;27;20035;-87
2022/01/06 08:02:18;;;;;;;14.33;2.80;;;1.40;99.90;;;;;;5099642;27;20054;-90
2022/01/06 08:04:43;;;;;;;19.67;3.60;;;1.40;99.90;;;;;;5078866;27;20028;-87
2022/01/06 08:07:09;;;;;;;17.60;3.27;;;1.40;99.90;;;;;;5102074;27;20074;-86
2022/01/06 08:09:35;;;;;;;18.27;2.90;;;1.40;99.90;;;;;;5093149;27;20039;-87
2022/01/06 08:12:01;;;;;;;11.83;3.27;;;1.40;99.90;;;;;;5083262;27;20043;-89
2022/01/06 08:14:29;;;;;;;17.57;2.80;;;1.40;99.90;;;;;;5082269;27;20367;-89
2022/01/06 08:16:55;;;;;;;10.00;2.63;;;1.50;99.90;;;;;;5084056;27;20160;-89
2022/01/06 08:19:20;;;;;;;16.43;3.17;;;1.50;99.90;;;;;;5085172;27;20094;-89
2022/01/06 08:21:46;;;;;;;14.53;2.67;;;1.50;99.90;;;;;;5099645;27;20035;-88
2022/01/06 08:24:12;;;;;;;18.37;3.63;;;1.50;99.90;;;;;;5087088;28;20040;-88
2022/01/06 08:26:37;;;;;;;16.50;3.27;;;1.60;99.90;;;;;;5086810;27;20042;-88
2022/01/06 08:29:03;;;;;;;17.57;2.33;;;1.60;99.90;;;;;;5080557;27;20056;-93
2022/01/06 08:31:29;;;;;;;13.13;2.43;;;1.60;99.90;;;;;;5092032;27;20103;-87
2022/01/06 08:33:54;;;;;;;12.50;2.90;;;1.70;99.90;;;;;;5063794;28;20040;-91
2022/01/06 08:36:20;;;;;;;17.67;2.77;;;1.70;99.90;;;;;;5115164;27;20119;-89
2022/01/06 08:38:46;;;;;;;22.70;3.43;;;1.70;99.90;;;;;;5080814;27;20044;-84
2022/01/06 08:41:12;;;;;;;14.17;2.57;;;1.70;99.90;;;;;;5081873;27;20042;-87
2022/01/06 08:43:38;;;;;;;17.03;3.10;;;1.70;99.90;;;;;;5069387;27;20043;-92
2022/01/06 08:46:03;;;;;;;14.97;2.97;;;1.70;99.90;;;;;;5080442;27;20080;-92
2022/01/06 08:48:31;;;;;;;12.30;3.07;;;1.80;99.90;;;;;;5084480;27;20078;-91
2022/01/06 08:50:57;;;;;;;17.83;3.00;;;1.80;99.90;;;;;;5079398;27;20051;-89
2022/01/06 08:53:24;;;;;;;10.80;3.33;;;1.80;99.90;;;;;;5082432;27;20297;-89
2022/01/06 08:55:49;;;;;;;13.07;2.60;;;1.80;99.90;;;;;;5085586;28;20027;-91
2022/01/06 08:58:16;;;;;;;16.33;2.77;;;1.80;99.90;;;;;;5111648;28;20066;-90
2022/01/06 09:00:43;;;;;;;11.93;2.30;;;1.80;99.90;;;;;;5059743;28;20130;-89
2022/01/06 09:03:09;;;;;;;13.37;3.10;;;1.80;99.90;;;;;;5048903;27;20052;-91
2022/01/06 09:05:36;;;;;;;17.97;3.53;;;1.80;99.90;;;;;;5074289;27;20031;-89
2022/01/06 09:08:04;;;;;;;11.77;2.70;;;1.80;99.90;;;;;;5082370;27;21413;-90
2022/01/06 09:10:31;;;;;;;9.77;2.30;;;1.80;99.90;;;;;;5068556;28;20050;-90
2022/01/06 09:12:57;;;;;;;13.27;3.23;;;1.90;99.90;;;;;;5053858;27;20497;-89
2022/01/06 09:15:23;;;;;;;9.93;2.37;;;1.90;99.90;;;;;;5095293;28;20502;-89
2022/01/06 09:17:49;;;;;;;17.03;3.43;;;1.90;99.90;;;;;;5113702;27;20054;-89
2022/01/06 09:20:15;;;;;;;19.90;3.47;;;2.00;99.90;;;;;;5065808;28;20058;-90
2022/01/06 09:22:42;;;;;;;15.17;3.20;;;2.00;99.90;;;;;;5081082;28;20051;-90
2022/01/06 09:25:10;;;;;;;16.90;3.33;;;2.10;99.90;;;;;;5077500;27;20077;-90
2022/01/06 09:27:35;;;;;;;14.37;3.20;;;2.10;99.90;;;;;;5090913;27;20054;-90
2022/01/06 09:30:02;;;;;;;13.70;3.20;;;2.10;99.90;;;;;;5080854;27;20483;-91
2022/01/06 09:32:28;;;;;;;14.20;3.90;;;2.20;99.90;;;;;;5072128;27;20058;-89
2022/01/06 09:34:53;;;;;;;12.10;3.43;;;2.20;99.90;;;;;;5096532;28;20730;-90
2022/01/06 09:37:20;;;;;;;15.40;3.37;;;2.20;99.90;;;;;;5111737;27;20177;-89
2022/01/06 09:39:47;;;;;;;12.13;2.90;;;2.30;99.90;;;;;;5089144;27;20043;-90
2022/01/06 09:42:14;;;;;;;15.23;2.50;;;2.40;99.90;;;;;;5091977;27;20108;-90
2022/01/06 09:44:40;;;;;;;16.17;3.30;;;2.50;99.90;;;;;;5117530;27;20106;-90
2022/01/06 09:47:09;;;;;;;13.97;2.90;;;2.50;99.90;;;;;;5089788;27;20047;-90
2022/01/06 09:49:42;;;;;;;20.53;3.97;;;2.60;99.90;;;;;;5083374;27;20038;-89
2022/01/06 09:52:09;;;;;;;18.43;2.60;;;2.70;99.90;;;;;;5080100;28;20096;-90
2022/01/06 09:54:35;;;;;;;16.47;2.90;;;2.60;99.90;;;;;;5111766;27;20058;-91
2022/01/06 09:57:02;;;;;;;13.53;3.33;;;2.70;99.90;;;;;;5070757;27;20039;-88
2022/01/06 09:59:28;;;;;;;11.93;3.23;;;2.70;99.90;;;;;;5100859;27;20043;-89
2022/01/06 10:01:54;;;;;;;12.60;3.27;;;2.70;99.90;;;;;;5073226;27;20069;-90
2022/01/06 10:04:27;;;;;;;12.17;2.87;;;2.70;99.90;;;;;;5079944;28;20058;-89
2022/01/06 10:07:06;;;;;;;11.33;3.20;;;2.80;99.90;;;;;;5095238;27;20041;-89
2022/01/06 10:09:34;;;;;;;12.20;2.87;;;2.90;99.90;;;;;;5104510;28;20036;-91
2022/01/06 10:12:03;;;;;;;17.17;2.80;;;2.90;99.90;;;;;;5093050;28;20070;-89
2022/01/06 10:14:56;;;;;;;14.17;2.97;;;3.00;99.90;;;;;;5080282;28;20089;-86
2022/01/06 10:17:31;;;;;;;15.40;3.30;;;3.10;99.90;;;;;;5085818;27;20051;-90
2022/01/06 10:20:08;;;;;;;13.90;2.83;;;3.20;99.90;;;;;;5086743;28;20039;-89
2022/01/06 10:22:46;;;;;;;18.03;3.23;;;3.20;99.90;;;;;;5080055;28;20036;-89
2022/01/06 10:25:13;;;;;;;16.17;3.17;;;3.30;99.90;;;;;;5113303;28;20035;-90
2022/01/06 10:27:39;;;;;;;15.70;3.20;;;3.40;99.90;;;;;;5072021;28;20038;-90
2022/01/06 10:30:06;;;;;;;15.30;3.23;;;3.50;99.90;;;;;;5104844;28;20043;-90
2022/01/06 10:32:32;;;;;;;14.03;3.10;;;3.60;99.90;;;;;;5085595;28;20086;-90
2022/01/06 10:35:04;;;;;;;15.87;3.30;;;3.60;99.90;;;;;;5087962;28;20040;-89
2022/01/06 10:37:40;;;;;;;18.85;3.95;;;3.70;99.90;;;;;;5068907;28;20054;-90
2022/01/06 10:40:12;;;;;;;11.00;2.30;;;3.80;99.90;;;;;;5107909;28;20043;-89
2022/01/06 10:42:39;;;;;;;;;;;3.90;99.90;;;;;;5099983;28;20051;-90
2022/01/06 10:45:11;;;;;;;21.67;3.23;;;3.90;99.90;;;;;;5092417;28;19924;-88
2022/01/06 10:47:39;;;;;;;;;;;4.10;99.90;;;;;;5089932;28;20051;-89
2022/01/06 10:50:25;;;;;;;9.00;2.73;;;4.20;99.90;;;;;;5110631;28;19923;-89
2022/01/06 10:52:57;;;;;;;13.17;3.27;;;4.20;99.90;;;;;;5080380;28;20043;-89
2022/01/06 10:55:28;;;;;;;22.07;3.60;;;4.30;99.90;;;;;;5080514;28;20190;-89
2022/01/06 10:58:06;;;;;;;15.13;3.53;;;4.40;99.90;;;;;;5085831;28;20036;-90
2022/01/06 11:00:42;;;;;;;15.37;3.50;;;4.40;99.90;;;;;;5083163;28;20065;-89
2022/01/06 11:03:23;;;;;;;18.70;3.30;;;4.50;99.90;;;;;;5098109;28;20182;-89
2022/01/06 11:05:57;;;;;;;18.48;3.50;;;4.60;99.90;;;;;;5098477;28;20051;-88
2022/01/06 11:08:32;;;;;;;12.23;3.20;;;4.60;99.90;;;;;;5096280;28;20051;-89
2022/01/06 11:13:44;;;;;;;11.67;2.97;;;4.80;99.90;;;;;;5108678;28;20055;-89
2022/01/06 11:16:13;;;;;;;15.80;2.90;;;4.80;99.90;;;;;;5109786;28;20047;-90
2022/01/06 11:19:09;;;;;;;14.63;2.87;;;4.90;99.90;;;;;;5090965;28;20047;-90
2022/01/06 11:21:44;;;;;;;12.77;2.87;;;4.90;99.90;;;;;;5097749;28;20055;-89
2022/01/06 11:24:18;;;;;;;13.30;3.80;;;5.00;99.90;;;;;;5084198;28;20039;-90
2022/01/06 11:27:10;;;;;;;10.17;3.13;;;5.10;99.90;;;;;;5087304;28;20401;-89
2022/01/06 11:29:44;;;;;;;18.67;2.93;;;5.10;99.90;;;;;;5068358;28;20050;-89
2022/01/06 11:32:25;;;;;;;12.20;2.57;;;5.20;99.90;;;;;;5093215;28;20070;-88
2022/01/06 11:35:01;;;;;;;13.00;2.87;;;5.20;99.90;;;;;;5096416;27;20047;-90
2022/01/06 11:37:39;;;;;;;13.93;3.13;;;5.30;99.90;;;;;;5109106;27;20054;-89
2022/01/06 11:40:06;;;;;;;15.70;2.93;;;5.40;99.90;;;;;;5092351;28;20046;-89
2022/01/06 11:42:32;;;;;;;11.83;2.73;;;5.40;99.90;;;;;;5098151;27;20047;-88
2022/01/06 11:44:58;;;;;;;12.53;3.23;;;5.50;99.90;;;;;;5066429;27;20063;-88
2022/01/06 11:47:38;;;;;;;17.40;3.03;;;5.50;99.90;;;;;;5088792;27;20095;-90
2022/01/06 11:50:25;;;;;;;11.33;2.67;;;5.60;99.90;;;;;;5093848;27;20039;-89
2022/01/06 11:52:59;;;;;;;15.50;3.23;;;5.60;99.90;;;;;;5105781;28;20074;-88
2022/01/06 11:55:33;;;;;;;20.97;3.17;;;5.70;99.90;;;;;;5108471;27;20075;-89
2022/01/06 11:58:12;;;;;;;20.87;2.90;;;5.70;99.90;;;;;;5097359;28;20368;-88
2022/01/06 12:00:42;;;;;;;11.00;2.47;;;5.80;99.90;;;;;;5114778;27;20051;-90
2022/01/06 12:03:13;;;;;;;16.40;2.93;;;5.80;99.90;;;;;;5085000;27;20545;-89
2022/01/06 12:05:52;;;;;;;15.87;3.50;;;5.90;99.90;;;;;;5092571;27;20052;-88
2022/01/06 12:08:42;;;;;;;13.57;3.20;;;5.90;99.90;;;;;;5089792;27;20082;-89
2022/01/06 12:11:23;;;;;;;14.40;3.50;;;5.90;99.90;;;;;;5084952;27;20048;-87
2022/01/06 12:13:50;;;;;;;13.20;2.70;;;5.90;99.90;;;;;;5115378;27;20035;-88
2022/01/06 12:16:28;;;;;;;15.53;2.43;;;5.90;99.90;;;;;;5083701;27;20071;-86
2022/01/06 12:18:55;;;;;;;12.50;2.87;;;6.00;99.90;;;;;;5093232;27;20047;-85
2022/01/06 12:21:22;;;;;;;13.40;2.53;;;6.00;99.90;;;;;;5091598;27;20039;-86
2022/01/06 12:23:58;;;;;;;17.70;2.90;;;6.00;99.90;;;;;;5095232;27;20032;-85
2022/01/06 12:26:24;;;;;;;17.80;2.87;;;6.00;99.90;;;;;;5112762;27;20050;-85
2022/01/06 12:28:49;;;;;;;12.90;2.07;;;6.10;99.90;;;;;;5111841;27;20099;-86
2022/01/06 12:31:23;;;;;;;13.23;2.87;;;6.10;99.90;;;;;;5059691;27;20039;-85
2022/01/06 12:33:58;;;;;;;13.20;2.70;;;6.10;99.90;;;;;;5092998;27;20047;-86
2022/01/06 12:36:28;;;;;;;20.20;2.93;;;6.10;99.90;;;;;;5096717;27;20282;-86
2022/01/06 12:38:54;;;;;;;17.13;2.67;;;6.10;99.90;;;;;;5096665;27;20058;-86
2022/01/06 12:41:29;;;;;;;14.37;2.90;;;6.10;99.90;;;;;;5092828;27;20530;-86
2022/01/06 12:43:56;;;;;;;15.27;2.33;;;6.10;99.90;;;;;;5112864;27;20047;-86
2022/01/06 12:46:29;;;;;;;7.57;2.33;;;6.20;99.90;;;;;;5094113;27;20047;-86
2022/01/06 12:48:55;;;;;;;11.53;3.33;;;6.20;99.90;;;;;;5094613;27;20043;-86
2022/01/06 12:51:26;;;;;;;15.73;2.60;;;6.20;99.90;;;;;;5097944;27;20062;-83
2022/01/06 12:54:11;;;;;;;11.83;2.30;;;6.30;99.90;;;;;;5091280;27;20054;-86
2022/01/06 12:56:45;;;;;;;14.90;3.00;;;6.30;99.90;;;;;;5087037;27;20044;-86
2022/01/06 12:59:24;;;;;;;18.53;3.10;;;6.30;99.90;;;;;;5088983;28;20467;-86
2022/01/06 13:01:58;;;;;;;13.40;2.73;;;6.30;99.90;;;;;;5115719;27;20063;-87
2022/01/06 13:04:27;;;;;;;16.07;3.40;;;6.30;99.90;;;;;;5068238;27;20055;-86